createdAt,value
2023-02-14T00:01:13.436Z,102358.27
2023-02-14T00:04:22.256Z,102341.27
2023-02-14T00:07:31.729Z,102323.77
2023-02-14T00:10:40.445Z,102333.71
2023-02-14T00:13:39.961Z,102352.88
2023-02-14T00:16:48.989Z,102351.24
2023-02-14T00:19:57.951Z,102346.19
2023-02-14T00:23:06.828Z,102346.55
2023-02-14T00:26:15.831Z,102341.78
2023-02-14T00:29:08.169Z,102337.99
2023-02-14T00:32:16.952Z,102338.75
2023-02-14T00:35:25.950Z,102329.63
2023-02-14T00:38:35.016Z,102326.42
2023-02-14T00:41:44.642Z,102324.07
2023-02-14T00:44:53.752Z,102310.14
2023-02-14T00:48:02.489Z,102306.80
2023-02-14T00:51:01.802Z,102311.55
2023-02-14T00:54:03.388Z,102314.27
2023-02-14T00:57:12.497Z,102313.86
2023-02-14T01:00:15.238Z,102318.09
2023-02-14T01:03:24.406Z,102316.11
2023-02-14T01:06:33.477Z,102321.65
2023-02-14T01:09:42.558Z,102316.64
2023-02-14T01:12:51.423Z,102303.59
2023-02-14T01:16:05.863Z,102300.23
2023-02-14T01:19:05.649Z,102299.34
2023-02-14T01:22:14.434Z,102290.27
2023-02-14T01:25:23.285Z,102286.60
2023-02-14T01:28:14.416Z,102286.97
2023-02-14T01:31:25.429Z,102286.55
2023-02-14T01:34:28.432Z,102285.89
2023-02-14T01:37:37.108Z,102288.71
2023-02-14T01:40:42.979Z,102281.37
2023-02-14T01:43:53.444Z,102277.20
2023-02-14T01:46:55.914Z,102280.11
2023-02-14T01:50:08.312Z,102281.53
2023-02-14T01:53:19.761Z,102276.84
2023-02-14T01:56:32.472Z,102271.09
2023-02-14T01:59:43.800Z,102257.30
2023-02-14T02:02:53.457Z,102256.94
2023-02-14T02:06:05.474Z,102259.21
2023-02-14T02:09:17.164Z,102262.17
2023-02-14T02:12:16.907Z,102263.64
2023-02-14T02:15:26.992Z,102256.55
2023-02-14T02:18:35.976Z,102254.16
2023-02-14T02:21:59.046Z,102262.58
2023-02-14T02:25:13.192Z,102265.40
2023-02-14T02:28:36.635Z,102255.80
2023-02-14T02:31:39.769Z,102247.44
2023-02-14T02:35:06.968Z,102235.48
2023-02-14T02:38:25.576Z,102237.02
2023-02-14T02:41:40.139Z,102240.69
2023-02-14T02:44:43.150Z,102239.75
2023-02-14T02:47:44.282Z,102234.10
2023-02-14T02:51:14.230Z,102226.41
2023-02-14T02:54:29.470Z,102228.36
2023-02-14T02:57:40.750Z,102231.91
2023-02-14T03:00:50.822Z,102233.80
2023-02-14T03:04:18.918Z,102230.33
2023-02-14T03:07:35.684Z,102233.56
2023-02-14T03:10:28.022Z,102228.34
2023-02-14T03:13:43.267Z,102223.70
2023-02-14T03:16:59.160Z,102229.91
2023-02-14T03:20:11.344Z,102229.64
2023-02-14T03:23:17.142Z,102228.95
2023-02-14T03:26:20.303Z,102221.90
2023-02-14T03:29:19.795Z,102213.76
2023-02-14T03:32:31.315Z,102205.73
2023-02-14T03:35:45.914Z,102194.27
2023-02-14T03:38:50.344Z,102189.48
2023-02-14T03:42:05.997Z,102186.17
2023-02-14T03:45:08.852Z,102184.73
2023-02-14T03:48:19.682Z,102180.04
2023-02-14T03:51:09.809Z,102187.62
2023-02-14T03:54:21.050Z,102186.13
2023-02-14T03:57:21.952Z,102186.89
2023-02-14T04:00:32.928Z,102185.70
2023-02-14T04:03:33.267Z,102178.70
2023-02-14T04:06:31.956Z,102180.06
2023-02-14T04:09:39.702Z,102183.32
2023-02-14T04:12:41.556Z,102170.80
2023-02-14T04:15:49.030Z,102174.60
2023-02-14T04:19:18.264Z,102166.72
2023-02-14T04:22:27.194Z,102161.33
2023-02-14T04:25:28.623Z,102168.10
2023-02-14T04:28:27.518Z,102166.63
2023-02-14T04:31:18.923Z,102161.52
2023-02-14T04:34:17.763Z,102160.61
2023-02-14T04:37:09.459Z,102162.88
2023-02-14T04:40:18.287Z,102153.08
2023-02-14T04:43:27.030Z,102155.22
2023-02-14T04:46:15.692Z,102159.72
2023-02-14T04:49:24.682Z,102153.82
2023-02-14T04:52:26.549Z,102155.67
2023-02-14T04:55:18.182Z,102155.48
2023-02-14T04:58:27.178Z,102152.96
2023-02-14T05:01:26.345Z,102151.70
2023-02-14T05:04:15.240Z,102152.99
2023-02-14T05:07:24.097Z,102152.85
2023-02-14T05:10:33.161Z,102146.17
2023-02-14T05:13:35.826Z,102140.36
2023-02-14T05:16:44.604Z,102145.43
2023-02-14T05:19:33.307Z,102145.55
2023-02-14T05:22:24.361Z,102143.60
2023-02-14T05:25:21.655Z,102143.67
2023-02-14T05:28:25.459Z,102143.84
2023-02-14T05:31:26.005Z,102144.23
2023-02-14T05:34:34.822Z,102137.75
2023-02-14T05:37:34.192Z,102132.95
2023-02-14T05:40:43.965Z,102132.77
2023-02-14T05:43:52.852Z,102122.19
2023-02-14T05:47:01.918Z,102123.71
2023-02-14T05:50:01.877Z,102120.90
2023-02-14T05:52:55.011Z,102124.48
2023-02-14T05:55:54.748Z,102129.26
2023-02-14T05:59:03.797Z,102123.65
2023-02-14T06:02:01.874Z,102123.17
2023-02-14T06:05:10.613Z,102114.63
2023-02-14T06:08:19.774Z,102111.23
2023-02-14T06:11:28.513Z,102106.25
2023-02-14T06:14:27.729Z,102106.66
2023-02-14T06:17:35.179Z,102106.48
2023-02-14T06:20:43.065Z,102106.91
2023-02-14T06:23:51.791Z,102102.23
2023-02-14T06:27:00.893Z,102100.21
2023-02-14T06:30:02.715Z,102098.77
2023-02-14T06:32:56.626Z,102098.20
2023-02-14T06:36:06.287Z,102097.16
2023-02-14T06:39:15.462Z,102101.64
2023-02-14T06:42:24.201Z,102100.83
2023-02-14T06:45:24.038Z,102095.59
2023-02-14T06:48:15.332Z,102105.98
2023-02-14T06:51:24.141Z,102104.45
2023-02-14T06:54:32.939Z,102109.05
2023-02-14T06:57:24.178Z,102103.13
2023-02-14T07:00:33.140Z,102102.09
2023-02-14T07:03:42.079Z,102096.27
2023-02-14T07:06:50.778Z,102091.55
2023-02-14T07:09:51.154Z,102092.14
2023-02-14T07:12:42.797Z,102093.20
2023-02-14T07:15:51.790Z,102093.45
2023-02-14T07:18:40.536Z,102095.14
2023-02-14T07:21:31.632Z,102099.58
2023-02-14T07:24:25.444Z,102102.33
2023-02-14T07:27:34.187Z,102104.23
2023-02-14T07:30:25.364Z,102111.34
2023-02-14T07:33:16.904Z,102106.17
2023-02-14T07:36:25.878Z,102108.33
2023-02-14T07:39:34.803Z,102113.09
2023-02-14T07:42:23.901Z,102119.92
2023-02-14T07:45:22.192Z,102125.65
2023-02-14T07:48:21.505Z,102129.16
2023-02-14T07:51:14.806Z,102130.13
2023-02-14T07:54:12.284Z,102125.05
2023-02-14T07:57:19.691Z,102124.30
2023-02-14T08:00:09.468Z,102125.35
2023-02-14T08:03:21.248Z,102126.05
2023-02-14T08:06:25.424Z,102132.98
2023-02-14T08:09:34.538Z,102137.63
2023-02-14T08:12:55.008Z,102139.90
2023-02-14T08:16:07.134Z,102148.23
2023-02-14T08:19:08.435Z,102155.25
2023-02-14T08:22:06.206Z,102151.13
2023-02-14T08:25:03.233Z,102143.11
2023-02-14T08:28:02.102Z,102138.64
2023-02-14T08:31:04.599Z,102139.75
2023-02-14T08:33:56.959Z,102128.44
2023-02-14T08:36:48.585Z,102127.84
2023-02-14T08:39:56.389Z,102122.98
2023-02-14T08:42:45.510Z,102123.14
2023-02-14T08:45:34.544Z,102123.73
2023-02-14T08:48:24.876Z,102124.80
2023-02-14T08:51:16.150Z,102127.66
2023-02-14T08:54:04.836Z,102134.30
2023-02-14T08:56:56.197Z,102135.60
2023-02-14T08:59:45.618Z,102135.06
2023-02-14T09:02:34.799Z,102142.26
2023-02-14T09:05:43.737Z,102138.54
2023-02-14T09:08:34.507Z,102126.57
2023-02-14T09:11:24.282Z,102126.75
2023-02-14T09:14:24.048Z,102129.63
2023-02-14T09:17:13.426Z,102132.16
2023-02-14T09:20:01.974Z,102136.16
2023-02-14T09:22:55.754Z,102132.80
2023-02-14T09:25:46.767Z,102136.06
2023-02-14T09:28:48.434Z,102141.25
2023-02-14T09:31:39.819Z,102144.51
2023-02-14T09:34:28.852Z,102145.04
2023-02-14T09:37:26.551Z,102142.60
2023-02-14T09:40:19.605Z,102144.75
2023-02-14T09:43:19.130Z,102142.25
2023-02-14T09:46:14.754Z,102155.09
2023-02-14T09:49:14.864Z,102156.18
2023-02-14T09:52:06.922Z,102147.50
2023-02-14T09:55:00.694Z,102137.65
2023-02-14T09:58:14.214Z,102141.29
2023-02-14T10:01:11.026Z,102143.77
2023-02-14T10:04:21.044Z,102141.83
2023-02-14T10:07:18.151Z,102137.75
2023-02-14T10:10:14.096Z,102146.24
2023-02-14T10:13:05.627Z,102148.89
2023-02-14T10:16:08.086Z,102151.89
2023-02-14T10:19:01.446Z,102147.42
2023-02-14T10:21:52.421Z,102145.20
2023-02-14T10:24:43.327Z,102142.75
2023-02-14T10:27:34.018Z,102140.94
2023-02-14T10:30:23.797Z,102141.54
2023-02-14T10:33:16.147Z,102137.47
2023-02-14T10:36:08.840Z,102142.84
2023-02-14T10:38:59.788Z,102144.29
2023-02-14T10:41:50.133Z,102144.41
2023-02-14T10:44:45.453Z,102143.44
2023-02-14T10:47:40.976Z,102150.15
2023-02-14T10:50:32.494Z,102147.80
2023-02-14T10:53:26.245Z,102148.74
2023-02-14T10:56:19.537Z,102140.27
2023-02-14T10:59:17.063Z,102138.26
2023-02-14T11:02:06.255Z,102130.86
2023-02-14T11:04:54.966Z,102127.94
2023-02-14T11:07:44.467Z,102125.08
2023-02-14T11:10:35.168Z,102127.86
2023-02-14T11:13:34.808Z,102121.94
2023-02-14T11:16:31.205Z,102113.51
2023-02-14T11:19:21.136Z,102116.63
2023-02-14T11:22:10.414Z,102119.00
2023-02-14T11:25:04.755Z,102123.27
2023-02-14T11:27:57.630Z,102122.85
2023-02-14T11:30:47.149Z,102125.17
2023-02-14T11:33:37.933Z,102114.80
2023-02-14T11:36:26.950Z,102116.16
2023-02-14T11:39:22.147Z,102113.79
2023-02-14T11:42:12.282Z,102110.70
2023-02-14T11:45:00.760Z,102103.42
2023-02-14T11:48:06.266Z,102091.03
2023-02-14T11:50:55.916Z,102080.01
2023-02-14T11:53:46.553Z,102076.71
2023-02-14T11:56:46.191Z,102068.59
2023-02-14T11:59:36.893Z,102063.86
2023-02-14T12:02:28.929Z,102065.36
2023-02-14T12:05:20.287Z,102048.77
2023-02-14T12:08:08.514Z,102041.46
2023-02-14T12:11:03.719Z,102037.77
2023-02-14T12:13:53.586Z,102029.28
2023-02-14T12:16:46.146Z,102019.02
2023-02-14T12:19:41.366Z,102013.14
2023-02-14T12:22:33.574Z,102007.38
2023-02-14T12:25:24.986Z,102011.48
2023-02-14T12:28:16.087Z,102007.34
2023-02-14T12:31:09.185Z,102002.35
2023-02-14T12:33:57.702Z,102003.49
2023-02-14T12:36:54.876Z,102004.13
2023-02-14T12:39:49.968Z,101999.16
2023-02-14T12:42:47.213Z,101997.12
2023-02-14T12:45:47.966Z,101995.09
2023-02-14T12:48:47.127Z,101997.77
2023-02-14T12:51:40.520Z,101998.98
2023-02-14T12:54:35.198Z,101993.25
2023-02-14T12:57:31.661Z,101986.98
2023-02-14T13:00:26.682Z,101979.64
2023-02-14T13:03:30.095Z,101974.73
2023-02-14T13:06:22.419Z,101971.30
2023-02-14T13:09:18.694Z,101963.66
2023-02-14T13:12:15.597Z,101963.08
2023-02-14T13:15:12.824Z,101957.91
2023-02-14T13:18:04.957Z,101956.75
2023-02-14T13:20:54.576Z,101958.40
2023-02-14T13:23:44.954Z,101950.98
2023-02-14T13:26:35.608Z,101953.87
2023-02-14T13:29:25.493Z,101945.02
2023-02-14T13:32:15.786Z,101949.45
2023-02-14T13:35:06.014Z,101944.33
2023-02-14T13:37:56.000Z,101941.02
2023-02-14T13:40:45.483Z,101939.70
2023-02-14T13:43:47.458Z,101939.69
2023-02-14T13:46:50.646Z,101943.73
2023-02-14T13:49:45.840Z,101939.41
2023-02-14T13:52:41.268Z,101932.87
2023-02-14T13:55:33.447Z,101929.43
2023-02-14T13:58:23.683Z,101934.55
2023-02-14T14:01:31.954Z,101932.67
2023-02-14T14:04:34.438Z,101934.73
2023-02-14T14:07:26.553Z,101934.89
2023-02-14T14:10:34.886Z,101935.13
2023-02-14T14:13:37.431Z,101943.23
2023-02-14T14:16:30.850Z,101952.65
2023-02-14T14:19:33.140Z,101952.34
2023-02-14T14:22:21.723Z,101950.15
2023-02-14T14:25:11.209Z,101945.75
2023-02-14T14:28:00.223Z,101950.30
2023-02-14T14:30:48.820Z,101947.08
2023-02-14T14:33:37.552Z,101942.15
2023-02-14T14:36:26.319Z,101932.54
2023-02-14T14:39:26.698Z,101925.30
2023-02-14T14:42:15.688Z,101918.20
2023-02-14T14:45:06.081Z,101924.64
2023-02-14T14:47:56.141Z,101921.89
2023-02-14T14:50:49.822Z,101915.89
2023-02-14T14:53:43.892Z,101917.45
2023-02-14T14:56:33.768Z,101923.35
2023-02-14T14:59:28.300Z,101923.83
2023-02-14T15:02:26.551Z,101929.10
2023-02-14T15:05:24.352Z,101926.13
2023-02-14T15:08:30.758Z,101926.94
2023-02-14T15:11:35.613Z,101929.15
2023-02-14T15:14:26.336Z,101924.15
2023-02-14T15:17:18.681Z,101922.64
2023-02-14T15:20:14.791Z,101921.90
2023-02-14T15:23:04.717Z,101923.73
2023-02-14T15:25:53.688Z,101923.48
2023-02-14T15:28:43.010Z,101933.90
2023-02-14T15:31:35.586Z,101933.05
2023-02-14T15:34:25.046Z,101933.30
2023-02-14T15:37:13.513Z,101931.23
2023-02-14T15:40:02.539Z,101929.52
2023-02-14T15:42:55.875Z,101917.73
2023-02-14T15:45:45.189Z,101907.12
2023-02-14T15:48:34.255Z,101904.13
2023-02-14T15:51:24.796Z,101906.20
2023-02-14T15:54:21.181Z,101901.58
2023-02-14T15:57:19.487Z,101893.00
2023-02-14T16:00:16.424Z,101888.88
2023-02-14T16:03:05.840Z,101887.41
2023-02-14T16:05:54.846Z,101883.27
2023-02-14T16:08:55.454Z,101880.52
2023-02-14T16:11:44.108Z,101888.66
2023-02-14T16:14:34.640Z,101891.50
2023-02-14T16:17:31.828Z,101888.29
2023-02-14T16:20:26.064Z,101884.32
2023-02-14T16:23:15.835Z,101877.21
2023-02-14T16:26:06.109Z,101875.02
2023-02-14T16:28:54.775Z,101873.54
2023-02-14T16:32:14.830Z,101867.37
2023-02-14T16:35:02.757Z,101868.34
2023-02-14T16:37:53.769Z,101870.95
2023-02-14T16:40:43.702Z,101869.32
2023-02-14T16:43:31.824Z,101872.15
2023-02-14T16:46:25.100Z,101862.23
2023-02-14T16:49:14.296Z,101858.30
2023-02-14T16:52:03.008Z,101860.03
2023-02-14T16:54:51.958Z,101851.52
2023-02-14T16:57:46.591Z,101846.52
2023-02-14T17:00:34.783Z,101849.45
2023-02-14T17:03:23.458Z,101851.42
2023-02-14T17:06:13.321Z,101852.05
2023-02-14T17:09:06.587Z,101854.98
2023-02-14T17:11:56.784Z,101852.08
2023-02-14T17:14:49.755Z,101854.33
2023-02-14T17:17:41.122Z,101858.17
2023-02-14T17:20:30.490Z,101849.68
2023-02-14T17:23:19.731Z,101845.87
2023-02-14T17:26:08.826Z,101846.17
2023-02-14T17:28:58.142Z,101848.52
2023-02-14T17:31:49.130Z,101847.03
2023-02-14T17:34:37.879Z,101847.58
2023-02-14T17:37:37.557Z,101846.39
2023-02-14T17:40:31.313Z,101851.09
2023-02-14T17:43:23.518Z,101850.23
2023-02-14T17:46:17.946Z,101851.85
2023-02-14T17:49:07.912Z,101853.31
2023-02-14T17:51:56.641Z,101855.05
2023-02-14T17:54:48.948Z,101855.96
2023-02-14T17:57:38.661Z,101858.51
2023-02-14T18:00:29.337Z,101857.08
2023-02-14T18:03:18.420Z,101852.13
2023-02-14T18:06:14.388Z,101856.57
2023-02-14T18:09:07.009Z,101853.11
2023-02-14T18:11:58.229Z,101851.52
2023-02-14T18:14:52.741Z,101858.95
2023-02-14T18:17:45.612Z,101854.58
2023-02-14T18:20:36.923Z,101853.16
2023-02-14T18:23:26.031Z,101850.79
2023-02-14T18:26:15.359Z,101852.69
2023-02-14T18:29:06.083Z,101857.08
2023-02-14T18:31:54.335Z,101852.05
2023-02-14T18:34:43.241Z,101847.92
2023-02-14T18:37:31.854Z,101846.67
2023-02-14T18:40:21.055Z,101844.55
2023-02-14T18:43:21.245Z,101847.70
2023-02-14T18:46:15.626Z,101843.68
2023-02-14T18:49:12.727Z,101835.19
2023-02-14T18:52:01.420Z,101829.49
2023-02-14T18:54:50.053Z,101829.10
2023-02-14T18:57:41.606Z,101828.41
2023-02-14T19:00:32.740Z,101837.64
2023-02-14T19:03:41.676Z,101836.28
2023-02-14T19:06:34.210Z,101829.30
2023-02-14T19:09:24.916Z,101833.98
2023-02-14T19:12:13.819Z,101838.69
2023-02-14T19:15:18.491Z,101830.56
2023-02-14T19:18:21.310Z,101832.20
2023-02-14T19:21:16.734Z,101828.04
2023-02-14T19:24:25.901Z,101832.88
2023-02-14T19:27:35.068Z,101836.20
2023-02-14T19:30:36.225Z,101830.45
2023-02-14T19:33:27.827Z,101830.04
2023-02-14T19:36:19.913Z,101829.27
2023-02-14T19:39:20.489Z,101829.52
2023-02-14T19:42:29.170Z,101834.09
2023-02-14T19:45:31.955Z,101834.40
2023-02-14T19:48:31.510Z,101834.94
2023-02-14T19:51:29.462Z,101830.83
2023-02-14T19:54:19.634Z,101831.88
2023-02-14T19:57:07.848Z,101831.55
2023-02-14T19:59:56.310Z,101829.41
2023-02-14T20:02:50.074Z,101826.36
2023-02-14T20:05:38.766Z,101821.53
2023-02-14T20:08:37.539Z,101816.96
2023-02-14T20:11:29.660Z,101810.04
2023-02-14T20:14:18.661Z,101807.19
2023-02-14T20:17:07.319Z,101809.50
2023-02-14T20:19:56.308Z,101802.59
2023-02-14T20:22:44.719Z,101796.18
2023-02-14T20:25:40.289Z,101798.73
2023-02-14T20:28:34.074Z,101803.09
2023-02-14T20:31:23.489Z,101804.10
2023-02-14T20:34:12.881Z,101803.70
2023-02-14T20:37:21.549Z,101804.02
2023-02-14T20:40:11.996Z,101809.21
2023-02-14T20:43:00.192Z,101802.92
2023-02-14T20:46:02.465Z,101792.00
2023-02-14T20:48:52.614Z,101782.61
2023-02-14T20:52:01.311Z,101780.02
2023-02-14T20:54:53.297Z,101781.81
2023-02-14T20:57:51.716Z,101781.52
2023-02-14T21:00:42.874Z,101783.29
2023-02-14T21:03:35.191Z,101789.31
2023-02-14T21:06:39.884Z,101787.86
2023-02-14T21:09:39.955Z,101790.56
2023-02-14T21:12:49.526Z,101783.45
2023-02-14T21:15:46.093Z,101779.91
2023-02-14T21:18:35.256Z,101765.70
2023-02-14T21:21:44.408Z,101757.39
2023-02-14T21:24:43.431Z,101741.07
2023-02-14T21:27:43.322Z,101732.14
2023-02-14T21:30:43.045Z,101730.14
2023-02-14T21:33:32.501Z,101736.43
2023-02-14T21:36:32.094Z,101734.29
2023-02-14T21:39:35.173Z,101721.77
2023-02-14T21:42:35.432Z,101711.19
2023-02-14T21:45:53.844Z,101705.09
2023-02-14T21:49:11.114Z,101707.63
2023-02-14T21:52:08.646Z,101713.23
2023-02-14T21:54:59.389Z,101715.14
2023-02-14T21:57:52.437Z,101712.73
2023-02-14T22:00:49.734Z,101722.04
2023-02-14T22:03:40.762Z,101726.24
2023-02-14T22:06:50.978Z,101727.84
2023-02-14T22:09:53.395Z,101724.44
2023-02-14T22:12:56.103Z,101713.17
2023-02-14T22:16:06.534Z,101709.67
2023-02-14T22:19:16.616Z,101699.73
2023-02-14T22:22:05.177Z,101687.76
2023-02-14T22:24:56.407Z,101680.95
2023-02-14T22:28:05.267Z,101687.02
2023-02-14T22:31:15.198Z,101675.48
2023-02-14T22:34:09.867Z,101674.70
2023-02-14T22:37:18.785Z,101670.38
2023-02-14T22:40:10.196Z,101658.85
2023-02-14T22:43:08.184Z,101652.65
2023-02-14T22:46:18.793Z,101661.50
2023-02-14T22:49:10.244Z,101634.61
2023-02-14T22:52:17.735Z,101636.91
2023-02-14T22:55:26.871Z,101639.10
2023-02-14T22:58:29.513Z,101649.02
2023-02-14T23:01:38.485Z,101642.48
2023-02-14T23:04:38.103Z,101629.80
2023-02-14T23:07:46.945Z,101631.80
2023-02-14T23:10:45.616Z,101620.50
2023-02-14T23:14:03.242Z,101618.61
2023-02-14T23:17:21.827Z,101624.14
2023-02-14T23:20:34.895Z,101627.64
2023-02-14T23:23:38.585Z,101633.39
2023-02-14T23:26:47.556Z,101629.17
2023-02-14T23:29:46.388Z,101628.06
2023-02-14T23:32:42.515Z,101618.77
2023-02-14T23:35:51.231Z,101612.91
2023-02-14T23:39:00.301Z,101603.80
2023-02-14T23:42:10.450Z,101594.38
2023-02-14T23:45:31.741Z,101586.89
2023-02-14T23:48:33.317Z,101573.02
2023-02-14T23:51:35.458Z,101574.20
2023-02-14T23:54:44.477Z,101564.84
2023-02-14T23:57:53.433Z,101564.83
